Time;durP1;ratioP1;P1;durP2;ratioP2;P2;SDS_P1;SDS_P2;PMS_P1;PMS_P2;Temp;Humidity;BMP_temperature;BMP_pressure;BME280_temperature;BME280_humidity;BME280_pressure;Samples;Min_cycle;Max_cycle;Signal;HPM_P1;HPM_P2
2023/04/17 00:00:56;;;;;;;13.13;9.47;;;6.80;85.20;;;;;;5037139;28;20475;-50
2023/04/17 00:03:24;;;;;;;10.93;9.00;;;6.80;90.50;;;;;;5033710;28;20468;-51
2023/04/17 00:05:52;;;;;;;11.00;9.90;;;6.80;84.30;;;;;;5041387;28;20498;-50
2023/04/17 00:08:19;;;;;;;14.40;9.63;;;6.80;99.90;;;;;;5037659;28;20943;-51
2023/04/17 00:10:45;;;;;;;10.83;8.83;;;6.80;96.80;;;;;;5038515;28;21111;-50
2023/04/17 00:13:12;;;;;;;14.30;9.50;;;6.80;93.30;;;;;;5040732;28;20506;-51
2023/04/17 00:15:39;;;;;;;15.17;9.70;;;6.80;85.70;;;;;;5041014;28;20524;-50
2023/04/17 00:18:05;;;;;;;16.73;10.97;;;6.70;77.00;;;;;;5040133;28;21022;-50
2023/04/17 00:20:33;;;;;;;13.67;9.20;;;6.70;22.40;;;;;;5046729;28;20460;-51
2023/04/17 00:23:00;;;;;;;15.23;10.20;;;6.70;24.30;;;;;;5048329;28;20511;-51
2023/04/17 00:25:27;;;;;;;15.53;10.50;;;6.60;24.30;;;;;;5037178;28;20470;-50
2023/04/17 00:27:53;;;;;;;10.57;9.47;;;6.60;24.30;;;;;;5043321;28;20961;-50
2023/04/17 00:30:20;;;;;;;13.57;10.10;;;6.60;25.60;;;;;;5050587;28;20513;-50
2023/04/17 00:32:47;;;;;;;13.90;10.00;;;6.50;27.40;;;;;;5050345;28;20526;-50
2023/04/17 00:35:14;;;;;;;11.13;9.60;;;6.50;27.90;;;;;;5048897;28;20465;-50
2023/04/17 00:37:42;;;;;;;12.50;9.60;;;6.50;28.40;;;;;;5043769;28;20465;-52
2023/04/17 00:40:09;;;;;;;17.03;9.60;;;6.50;27.80;;;;;;5047748;28;20496;-50
2023/04/17 00:42:36;;;;;;;12.13;9.50;;;6.50;26.40;;;;;;5037548;28;20517;-51
2023/04/17 00:45:04;;;;;;;9.50;8.60;;;6.50;26.30;;;;;;5046438;28;20492;-50
2023/04/17 00:47:30;;;;;;;10.67;9.57;;;6.50;24.80;;;;;;5046298;28;20499;-50
2023/04/17 00:49:57;;;;;;;10.47;9.33;;;6.50;26.10;;;;;;5042926;28;20997;-51
2023/04/17 00:52:28;;;;;;;12.50;10.13;;;6.40;27.90;;;;;;5047466;28;21034;-50
2023/04/17 00:54:58;;;;;;;13.13;9.67;;;6.40;27.90;;;;;;5044155;28;20493;-51
2023/04/17 00:57:25;;;;;;;13.03;9.40;;;6.30;28.40;;;;;;5034204;28;20489;-50
2023/04/17 00:59:52;;;;;;;13.50;10.53;;;6.30;28.00;;;;;;5039457;28;20468;-51
2023/04/17 01:02:19;;;;;;;13.00;9.33;;;6.30;27.00;;;;;;5036362;28;20504;-51
2023/04/17 01:04:45;;;;;;;11.53;10.30;;;6.30;28.10;;;;;;5039773;28;20465;-51
2023/04/17 01:07:12;;;;;;;13.10;9.03;;;6.30;27.30;;;;;;5042994;28;20492;-50
2023/04/17 01:09:38;;;;;;;15.80;9.50;;;6.30;25.80;;;;;;5045007;28;20516;-50
2023/04/17 01:12:21;;;;;;;14.23;10.13;;;6.30;24.00;;;;;;5043634;28;21029;-51
2023/04/17 01:14:49;;;;;;;12.67;9.50;;;6.30;23.40;;;;;;5039400;28;20492;-50
2023/04/17 01:17:17;;;;;;;12.20;9.70;;;6.20;23.60;;;;;;5040867;28;20491;-51
2023/04/17 01:19:44;;;;;;;12.80;9.90;;;6.20;23.20;;;;;;5046307;28;20460;-51
2023/04/17 01:22:11;;;;;;;12.27;8.70;;;6.20;22.90;;;;;;5046803;28;21168;-51
2023/04/17 01:24:39;;;;;;;14.17;9.80;;;6.20;23.20;;;;;;5042601;28;20461;-51
2023/04/17 01:27:06;;;;;;;12.70;9.27;;;6.10;24.30;;;;;;5050079;28;20504;-51
2023/04/17 01:29:33;;;;;;;11.00;9.93;;;6.10;23.50;;;;;;5052265;28;20502;-50
2023/04/17 01:32:00;;;;;;;11.90;10.00;;;6.10;24.00;;;;;;5051569;28;21046;-51
2023/04/17 01:34:27;;;;;;;12.50;9.50;;;6.10;22.70;;;;;;5046561;28;20460;-50
2023/04/17 01:36:53;;;;;;;11.50;9.50;;;6.10;23.40;;;;;;5054021;28;20441;-50
2023/04/17 01:39:20;;;;;;;13.50;9.60;;;6.00;24.40;;;;;;5043544;28;20511;-52
2023/04/17 01:41:48;;;;;;;11.13;9.37;;;6.00;24.50;;;;;;5052947;28;20521;-51
2023/04/17 01:44:15;;;;;;;14.83;9.57;;;6.00;25.50;;;;;;5043866;28;20501;-51
2023/04/17 01:46:41;;;;;;;11.43;9.60;;;5.90;24.80;;;;;;5050563;28;20448;-50
2023/04/17 01:49:08;;;;;;;12.37;10.10;;;5.90;24.90;;;;;;5039794;28;20511;-50
2023/04/17 01:51:34;;;;;;;10.17;8.80;;;5.90;24.40;;;;;;5040745;28;20527;-50
2023/04/17 01:54:01;;;;;;;20.70;8.73;;;5.90;24.50;;;;;;5038070;28;20504;-57
2023/04/17 01:56:28;;;;;;;13.23;9.20;;;5.90;24.80;;;;;;5047703;28;20505;-57
2023/04/17 01:58:55;;;;;;;12.77;10.27;;;5.90;23.60;;;;;;5044778;28;20493;-56
2023/04/17 02:01:22;;;;;;;11.77;10.47;;;5.90;22.80;;;;;;5038681;28;20544;-57
2023/04/17 02:03:49;;;;;;;17.23;9.33;;;5.90;23.70;;;;;;5045204;28;20497;-57
2023/04/17 02:06:16;;;;;;;13.67;9.13;;;5.90;23.70;;;;;;5044151;28;20469;-57
2023/04/17 02:08:42;;;;;;;11.87;10.70;;;5.90;23.40;;;;;;5042845;28;20838;-56
2023/04/17 02:11:09;;;;;;;11.33;8.87;;;5.90;22.80;;;;;;5045530;28;20523;-58
2023/04/17 02:13:36;;;;;;;11.60;9.83;;;5.90;24.00;;;;;;5048277;28;20475;-57
2023/04/17 02:16:04;;;;;;;16.37;10.50;;;5.90;24.10;;;;;;5046110;28;20566;-57
2023/04/17 02:18:30;;;;;;;13.13;10.43;;;5.90;23.90;;;;;;5038868;28;20469;-56
2023/04/17 02:20:57;;;;;;;14.43;9.17;;;5.90;24.40;;;;;;5042492;28;20512;-57
2023/04/17 02:23:24;;;;;;;13.47;9.60;;;5.90;25.40;;;;;;5041028;28;20503;-57
2023/04/17 02:25:50;;;;;;;21.57;9.80;;;5.90;26.10;;;;;;5038126;28;20465;-56
2023/04/17 02:28:17;;;;;;;18.27;9.80;;;5.90;26.30;;;;;;5042976;28;20500;-57
2023/04/17 02:30:44;;;;;;;12.40;9.53;;;5.90;25.70;;;;;;5048718;28;20541;-56
2023/04/17 02:33:12;;;;;;;12.93;10.27;;;5.80;26.90;;;;;;5051603;28;20466;-57
2023/04/17 02:35:39;;;;;;;10.00;8.97;;;5.80;27.30;;;;;;5041646;28;20505;-61
2023/04/17 02:38:06;;;;;;;10.33;9.20;;;5.80;25.60;;;;;;5045732;28;20473;-57
2023/04/17 02:40:32;;;;;;;11.90;10.17;;;5.80;26.30;;;;;;5049309;28;20491;-56
2023/04/17 02:42:59;;;;;;;14.03;10.30;;;5.80;25.90;;;;;;5044926;28;20911;-56
2023/04/17 02:45:25;;;;;;;15.97;10.00;;;5.70;26.50;;;;;;5051927;28;20493;-56
2023/04/17 02:47:52;;;;;;;12.00;10.60;;;5.80;21.30;;;;;;5045261;28;20516;-57
2023/04/17 02:50:20;;;;;;;14.30;10.03;;;5.70;23.20;;;;;;5045853;28;20640;-56
2023/04/17 02:52:47;;;;;;;11.43;10.00;;;5.70;23.50;;;;;;5048516;28;20468;-56
2023/04/17 02:55:13;;;;;;;14.00;10.17;;;5.60;24.70;;;;;;5047652;28;20591;-55
2023/04/17 02:57:40;;;;;;;13.00;9.97;;;5.60;23.50;;;;;;5050183;28;21068;-56
2023/04/17 03:00:07;;;;;;;15.97;10.80;;;5.60;23.30;;;;;;5039075;28;20486;-56
2023/04/17 03:02:34;;;;;;;14.03;10.37;;;5.50;22.10;;;;;;5040244;28;20490;-57
2023/04/17 03:05:03;;;;;;;10.50;9.40;;;5.50;21.20;;;;;;5042973;28;20465;-56
2023/04/17 03:07:31;;;;;;;12.77;10.27;;;5.50;20.70;;;;;;5051420;28;20464;-56
2023/04/17 03:09:57;;;;;;;14.73;10.73;;;5.40;21.00;;;;;;5039060;28;20529;-60
2023/04/17 03:12:25;;;;;;;15.83;9.57;;;5.40;21.20;;;;;;5035588;28;20540;-57
2023/04/17 03:14:51;;;;;;;11.10;9.80;;;5.40;73.00;;;;;;5047364;28;20496;-56
2023/04/17 03:17:19;;;;;;;12.47;10.87;;;5.30;74.10;;;;;;5048072;28;20483;-56
2023/04/17 03:19:45;;;;;;;14.40;9.80;;;5.40;93.00;;;;;;5050615;28;20464;-56
2023/04/17 03:22:12;;;;;;;11.20;10.00;;;5.30;90.40;;;;;;5044445;28;20835;-57
2023/04/17 03:24:40;;;;;;;13.10;10.57;;;5.30;89.20;;;;;;5043474;28;20467;-56
2023/04/17 03:27:07;;;;;;;12.40;10.07;;;5.20;86.20;;;;;;5044029;28;20474;-56
2023/04/17 03:29:33;;;;;;;12.10;9.83;;;5.20;86.50;;;;;;5047777;28;21012;-56
2023/04/17 03:32:00;;;;;;;11.90;10.70;;;5.10;87.20;;;;;;5041101;28;21018;-56
2023/04/17 03:34:27;;;;;;;12.70;10.60;;;5.10;92.50;;;;;;5050849;28;20507;-56
2023/04/17 03:36:54;;;;;;;15.20;10.30;;;5.10;99.90;;;;;;5039614;28;20493;-56
2023/04/17 03:39:21;;;;;;;12.10;10.80;;;5.00;99.90;;;;;;5046887;28;20549;-56
2023/04/17 03:41:49;;;;;;;13.93;10.20;;;5.00;99.90;;;;;;5047280;28;20486;-56
2023/04/17 03:44:16;;;;;;;15.37;11.03;;;5.00;99.90;;;;;;5049494;28;20507;-56
2023/04/17 03:46:42;;;;;;;14.40;11.03;;;4.90;99.90;;;;;;5047288;28;20888;-57
2023/04/17 03:49:09;;;;;;;12.00;10.40;;;4.90;99.90;;;;;;5050078;28;20480;-56
2023/04/17 03:51:35;;;;;;;11.67;10.27;;;4.90;99.90;;;;;;5042595;28;20554;-56
2023/04/17 03:54:02;;;;;;;12.70;11.00;;;4.90;99.90;;;;;;5038255;28;20500;-56
2023/04/17 03:56:29;;;;;;;18.10;11.47;;;4.90;99.90;;;;;;5045925;28;20441;-56
2023/04/17 03:58:57;;;;;;;12.60;10.80;;;4.90;99.90;;;;;;5045024;28;20477;-56
2023/04/17 04:01:27;;;;;;;20.60;11.20;;;4.90;99.90;;;;;;5037620;28;20521;-56
2023/04/17 04:03:53;;;;;;;13.60;11.43;;;4.90;99.90;;;;;;5048057;28;20582;-56
2023/04/17 04:06:21;;;;;;;16.70;11.50;;;4.90;99.90;;;;;;5035409;28;20568;-56
2023/04/17 04:08:48;;;;;;;15.33;10.90;;;4.90;99.90;;;;;;5046981;28;20474;-56
2023/04/17 04:11:14;;;;;;;25.67;12.20;;;4.90;99.90;;;;;;5041707;28;20591;-56
2023/04/17 04:13:41;;;;;;;12.50;11.30;;;4.90;99.90;;;;;;5057531;28;20501;-56
2023/04/17 04:16:09;;;;;;;16.33;11.70;;;4.80;99.90;;;;;;5043947;28;20523;-57
2023/04/17 04:18:36;;;;;;;14.13;12.17;;;4.80;99.90;;;;;;5033286;28;20500;-56
2023/04/17 04:21:03;;;;;;;14.73;11.40;;;4.80;99.90;;;;;;5037257;28;20839;-56
2023/04/17 04:23:30;;;;;;;16.03;13.03;;;4.80;99.90;;;;;;5035361;28;20522;-56
2023/04/17 04:25:56;;;;;;;12.97;11.53;;;4.80;99.90;;;;;;5043389;28;20555;-57
2023/04/17 04:28:23;;;;;;;19.23;14.43;;;4.80;99.90;;;;;;5041514;28;20488;-56
2023/04/17 04:30:52;;;;;;;16.33;12.80;;;4.80;99.90;;;;;;5040859;28;20573;-55
2023/04/17 04:33:20;;;;;;;19.63;11.97;;;4.80;99.90;;;;;;5041284;28;20469;-55
2023/04/17 04:35:47;;;;;;;14.63;12.63;;;4.80;99.90;;;;;;5043204;28;20461;-57
2023/04/17 04:38:14;;;;;;;27.13;12.40;;;4.80;99.90;;;;;;5038970;28;20464;-56
2023/04/17 04:40:42;;;;;;;19.93;13.27;;;4.80;99.90;;;;;;5032078;28;20460;-57
2023/04/17 04:43:09;;;;;;;14.00;11.87;;;4.80;99.90;;;;;;5040123;28;20472;-56
2023/04/17 04:45:36;;;;;;;15.10;12.47;;;4.80;99.90;;;;;;5040105;28;20468;-58
2023/04/17 04:48:03;;;;;;;12.83;11.53;;;4.80;99.90;;;;;;5037239;28;20512;-57
2023/04/17 04:50:31;;;;;;;17.00;13.43;;;4.90;99.90;;;;;;5035371;28;20494;-57
2023/04/17 04:52:58;;;;;;;17.70;14.03;;;4.80;99.90;;;;;;5046641;28;20492;-56
2023/04/17 04:55:25;;;;;;;22.87;18.40;;;4.80;99.90;;;;;;5041782;28;20489;-57
2023/04/17 04:57:53;;;;;;;33.33;28.40;;;4.90;99.90;;;;;;5046320;28;21639;-56
2023/04/17 05:00:19;;;;;;;31.17;24.17;;;5.00;99.90;;;;;;5050794;28;20469;-56
2023/04/17 05:02:46;;;;;;;24.73;18.90;;;5.00;99.90;;;;;;5045902;28;20516;-57
2023/04/17 05:05:13;;;;;;;26.80;22.80;;;5.10;99.90;;;;;;5045722;28;20489;-57
2023/04/17 05:07:40;;;;;;;22.33;19.57;;;5.20;99.90;;;;;;5053342;28;20522;-57
2023/04/17 05:10:08;;;;;;;19.60;17.57;;;5.30;99.90;;;;;;5043520;28;20520;-57
2023/04/17 05:12:35;;;;;;;18.53;16.07;;;5.30;99.90;;;;;;5050393;28;20530;-53
2023/04/17 05:15:01;;;;;;;18.63;16.27;;;5.30;99.90;;;;;;5046945;28;20472;-54
2023/04/17 05:17:28;;;;;;;22.40;17.10;;;5.40;99.90;;;;;;5053718;28;20893;-53
2023/04/17 05:19:54;;;;;;;21.80;16.00;;;5.50;99.90;;;;;;5045966;28;20582;-54
2023/04/17 05:22:21;;;;;;;23.67;16.90;;;5.50;99.90;;;;;;5039257;28;20490;-53
2023/04/17 05:24:49;;;;;;;17.90;16.10;;;5.50;99.90;;;;;;5044599;28;20485;-53
2023/04/17 05:27:16;;;;;;;23.43;16.77;;;5.60;99.90;;;;;;5050276;28;20455;-54
2023/04/17 05:29:43;;;;;;;21.77;18.00;;;5.60;99.90;;;;;;5043257;28;20586;-54
2023/04/17 05:32:09;;;;;;;32.03;18.97;;;5.60;99.90;;;;;;5052105;28;20948;-54
2023/04/17 05:34:36;;;;;;;20.63;18.10;;;5.70;99.90;;;;;;5051728;28;20472;-54
2023/04/17 05:37:03;;;;;;;23.93;17.50;;;5.80;99.90;;;;;;5048816;28;20472;-53
2023/04/17 05:39:29;;;;;;;22.57;17.90;;;5.70;99.90;;;;;;5050281;28;20547;-54
2023/04/17 05:41:57;;;;;;;29.50;16.70;;;5.80;99.90;;;;;;5046958;28;20484;-53
2023/04/17 05:44:24;;;;;;;26.23;16.60;;;5.90;99.90;;;;;;5045725;28;20492;-53
2023/04/17 05:46:50;;;;;;;30.20;18.97;;;5.80;86.70;;;;;;5045142;28;20877;-53
2023/04/17 05:49:17;;;;;;;27.13;17.60;;;5.90;88.70;;;;;;5043922;28;20504;-53
2023/04/17 05:51:43;;;;;;;23.73;18.63;;;5.90;85.00;;;;;;5047882;28;20521;-53
2023/04/17 05:54:10;;;;;;;20.47;18.10;;;5.90;20.40;;;;;;5041286;28;20460;-53
2023/04/17 05:56:38;;;;;;;29.80;19.53;;;6.10;87.30;;;;;;5037130;28;20493;-52
2023/04/17 05:59:05;;;;;;;25.40;19.13;;;6.10;76.60;;;;;;5041892;28;20468;-53
2023/04/17 06:01:32;;;;;;;22.33;18.67;;;6.20;20.50;;;;;;5040178;28;20507;-53
2023/04/17 06:03:59;;;;;;;23.30;18.77;;;6.20;23.00;;;;;;5037855;28;20530;-51
2023/04/17 06:06:26;;;;;;;26.10;19.57;;;6.20;26.10;;;;;;5043197;28;20500;-52
2023/04/17 06:08:53;;;;;;;21.70;18.07;;;6.20;31.00;;;;;;5053629;28;20466;-52
2023/04/17 06:11:19;;;;;;;22.87;17.90;;;6.30;28.50;;;;;;5042526;28;20565;-53
2023/04/17 06:13:46;;;;;;;30.00;25.27;;;6.40;29.50;;;;;;5045209;28;20501;-52
2023/04/17 06:16:14;;;;;;;28.60;20.63;;;6.40;34.60;;;;;;5046330;28;20465;-52
2023/04/17 06:18:41;;;;;;;25.80;21.60;;;6.50;32.50;;;;;;5051834;28;20502;-53
2023/04/17 06:21:08;;;;;;;23.40;19.33;;;6.50;36.50;;;;;;5052142;28;20473;-53
2023/04/17 06:23:35;;;;;;;26.33;20.07;;;6.60;36.80;;;;;;5051841;28;20505;-52
2023/04/17 06:26:01;;;;;;;24.23;18.23;;;6.70;35.70;;;;;;5051918;28;20482;-52
2023/04/17 06:28:28;;;;;;;26.63;17.60;;;6.70;40.00;;;;;;5048630;28;20466;-53
2023/04/17 06:30:54;;;;;;;25.43;18.07;;;6.70;46.40;;;;;;5055802;28;20484;-52
2023/04/17 06:33:22;;;;;;;19.53;17.50;;;6.70;48.00;;;;;;5048345;28;20967;-52
2023/04/17 06:35:49;;;;;;;18.70;16.70;;;6.80;49.10;;;;;;5049315;28;20493;-52
2023/04/17 06:38:15;;;;;;;24.50;18.43;;;6.90;46.20;;;;;;5047785;28;20448;-53
2023/04/17 06:40:42;;;;;;;21.47;19.17;;;6.90;51.30;;;;;;5043981;28;20949;-52
2023/04/17 06:43:09;;;;;;;20.53;18.43;;;7.00;54.40;;;;;;5039571;28;20529;-52
2023/04/17 06:45:35;;;;;;;26.03;19.37;;;6.90;57.00;;;;;;5043439;28;20499;-53
2023/04/17 06:48:02;;;;;;;26.53;19.30;;;7.00;64.00;;;;;;5048896;28;20461;-54
2023/04/17 06:50:30;;;;;;;25.13;19.87;;;7.00;70.80;;;;;;5043486;28;20490;-53
2023/04/17 06:52:56;;;;;;;21.20;18.20;;;7.20;60.40;;;;;;5038512;28;21018;-53
2023/04/17 06:55:23;;;;;;;20.40;17.80;;;7.30;62.10;;;;;;5044003;28;21257;-52
2023/04/17 06:57:49;;;;;;;21.40;17.73;;;7.50;64.90;;;;;;5041995;28;20463;-53
2023/04/17 07:00:17;;;;;;;25.00;18.97;;;7.50;87.80;;;;;;5049712;28;20554;-53
2023/04/17 07:02:43;;;;;;;21.67;16.73;;;7.60;81.90;;;;;;5036332;28;20587;-53
2023/04/17 07:05:11;;;;;;;23.83;18.47;;;7.80;89.30;;;;;;5049199;28;20515;-53
2023/04/17 07:07:39;;;;;;;22.27;19.30;;;8.00;94.70;;;;;;5042271;28;20496;-53
2023/04/17 07:10:07;;;;;;;23.33;17.43;;;8.20;99.90;;;;;;5046636;28;20469;-53
2023/04/17 07:12:34;;;;;;;32.63;18.03;;;8.20;99.90;;;;;;5039061;28;20514;-53
2023/04/17 07:15:00;;;;;;;23.17;18.60;;;8.30;99.90;;;;;;5041700;28;20513;-52
2023/04/17 07:17:27;;;;;;;22.83;16.40;;;8.40;99.90;;;;;;5038043;28;20492;-54
2023/04/17 07:19:53;;;;;;;26.20;19.17;;;8.50;99.90;;;;;;5043209;28;20490;-52
2023/04/17 07:22:20;;;;;;;26.27;18.20;;;8.30;99.90;;;;;;5052133;28;20471;-52
2023/04/17 07:24:48;;;;;;;24.23;17.57;;;8.40;99.90;;;;;;5047500;28;20530;-52
2023/04/17 07:27:15;;;;;;;35.30;18.50;;;8.40;99.90;;;;;;5038602;28;20491;-52
2023/04/17 07:29:41;;;;;;;23.67;18.43;;;8.30;99.90;;;;;;5043684;28;20510;-60
2023/04/17 07:32:08;;;;;;;21.53;18.03;;;8.30;99.90;;;;;;5031909;28;20514;-52
2023/04/17 07:34:36;;;;;;;24.40;18.50;;;8.30;99.90;;;;;;5042043;28;20492;-53
2023/04/17 07:37:02;;;;;;;24.63;17.30;;;8.50;99.90;;;;;;5038795;28;20545;-53
2023/04/17 07:39:30;;;;;;;19.10;16.37;;;8.60;99.90;;;;;;5035921;28;20456;-53
2023/04/17 07:41:58;;;;;;;18.80;16.63;;;9.00;99.90;;;;;;5041421;28;20509;-52
2023/04/17 07:44:25;;;;;;;25.00;16.83;;;9.30;99.90;;;;;;5044418;28;20899;-52
2023/04/17 07:46:51;;;;;;;17.83;14.73;;;9.20;99.90;;;;;;5033208;28;20472;-52
2023/04/17 07:49:18;;;;;;;24.23;16.27;;;9.50;99.90;;;;;;5045290;28;20493;-54
2023/04/17 07:51:44;;;;;;;23.87;16.53;;;9.60;99.90;;;;;;5041088;28;20539;-52
2023/04/17 07:54:11;;;;;;;27.67;17.00;;;9.40;99.90;;;;;;5053177;28;20493;-53
2023/04/17 07:56:38;;;;;;;23.73;16.13;;;9.40;99.90;;;;;;5047627;28;20462;-52
2023/04/17 07:59:05;;;;;;;20.60;16.17;;;9.40;99.90;;;;;;5049876;28;20474;-53
2023/04/17 08:01:32;;;;;;;19.93;14.90;;;9.30;99.90;;;;;;5046036;28;20515;-53
2023/04/17 08:03:59;;;;;;;18.87;15.80;;;9.50;99.90;;;;;;5042425;28;20547;-53
2023/04/17 08:06:26;;;;;;;21.57;15.13;;;9.90;99.90;;;;;;5047992;28;20468;-52
2023/04/17 08:08:53;;;;;;;18.00;14.30;;;9.90;38.40;;;;;;5046790;28;20468;-53
2023/04/17 08:11:20;;;;;;;16.17;14.37;;;10.10;47.50;;;;;;5041757;28;20491;-53
2023/04/17 08:13:46;;;;;;;18.47;15.00;;;10.20;70.20;;;;;;5064008;28;20448;-52
2023/04/17 08:16:14;;;;;;;17.00;13.17;;;10.10;93.50;;;;;;5054927;28;20468;-53
2023/04/17 08:18:41;;;;;;;17.90;13.27;;;10.60;86.70;;;;;;5040493;28;20572;-53
2023/04/17 08:21:08;;;;;;;16.43;11.90;;;10.70;99.90;;;;;;5047864;28;20488;-52
2023/04/17 08:23:34;;;;;;;15.23;11.17;;;10.70;99.90;;;;;;5047169;28;20519;-53
2023/04/17 08:26:01;;;;;;;28.77;10.83;;;10.90;99.90;;;;;;5043567;28;20995;-53
2023/04/17 08:28:28;;;;;;;16.73;11.80;;;11.00;99.90;;;;;;5031680;28;20462;-53
2023/04/17 08:30:55;;;;;;;17.40;12.47;;;10.90;39.40;;;;;;5052549;28;20469;-52
2023/04/17 08:33:23;;;;;;;14.10;11.73;;;10.80;65.20;;;;;;5045359;28;20907;-52
2023/04/17 08:35:51;;;;;;;18.43;10.97;;;11.30;81.30;;;;;;5036254;28;22446;-52
2023/04/17 08:38:17;;;;;;;12.93;11.60;;;11.90;99.90;;;;;;5050765;28;20492;-52
2023/04/17 08:40:50;;;;;;;15.00;11.40;;;12.10;99.90;;;;;;5050508;28;20915;-52
2023/04/17 08:43:18;;;;;;;12.57;10.13;;;12.20;99.90;;;;;;5054899;28;20522;-53
2023/04/17 08:45:52;;;;;;;19.70;12.30;;;13.00;99.90;;;;;;5053476;28;20477;-53
2023/04/17 08:48:19;;;;;;;18.20;10.93;;;13.40;99.90;;;;;;5054393;28;20447;-53
2023/04/17 08:50:48;;;;;;;18.97;10.50;;;13.30;99.90;;;;;;5029590;28;20590;-52
2023/04/17 08:53:15;;;;;;;11.67;10.27;;;13.20;99.90;;;;;;5034369;28;21014;-52
2023/04/17 08:55:42;;;;;;;13.40;10.03;;;13.00;99.90;;;;;;5046390;28;20470;-52
2023/04/17 08:58:09;;;;;;;20.77;11.10;;;12.90;99.90;;;;;;5037897;28;20493;-52
2023/04/17 09:00:37;;;;;;;13.20;10.17;;;13.10;99.90;;;;;;5039886;28;20990;-54
2023/04/17 09:03:06;;;;;;;12.60;10.83;;;13.10;99.90;;;;;;5048892;28;20469;-52
2023/04/17 09:05:35;;;;;;;15.57;11.30;;;13.40;99.90;;;;;;5041150;28;20547;-53
2023/04/17 09:08:11;;;;;;;13.90;10.53;;;13.20;99.90;;;;;;5042289;28;20464;-52
2023/04/17 09:10:39;;;;;;;13.80;11.10;;;13.80;99.90;;;;;;5045895;28;20477;-54
2023/04/17 09:13:07;;;;;;;14.50;10.70;;;13.50;99.90;;;;;;5051458;28;20567;-52
2023/04/17 09:15:34;;;;;;;13.87;11.13;;;13.50;99.90;;;;;;5045285;28;20469;-53
2023/04/17 09:18:01;;;;;;;20.57;10.10;;;12.80;99.90;;;;;;5053613;28;20918;-53
2023/04/17 09:20:27;;;;;;;11.10;9.80;;;13.40;99.90;;;;;;5041119;28;20519;-53
2023/04/17 09:23:02;;;;;;;14.67;11.50;;;13.70;99.90;;;;;;5053068;28;20448;-52
2023/04/17 09:25:30;;;;;;;17.20;11.07;;;13.80;99.90;;;;;;5047536;28;20819;-54
2023/04/17 09:28:11;;;;;;;13.30;10.40;;;14.10;99.90;;;;;;5041313;28;20466;-53
2023/04/17 09:30:38;;;;;;;12.90;10.70;;;14.50;99.90;;;;;;5046101;28;20497;-54
2023/04/17 09:33:07;;;;;;;16.77;11.67;;;14.90;99.90;;;;;;5053594;28;20545;-53
2023/04/17 09:35:34;;;;;;;22.53;11.47;;;14.80;99.90;;;;;;5027511;28;20467;-52
2023/04/17 09:38:01;;;;;;;16.90;10.37;;;14.20;99.90;;;;;;5038761;28;20459;-52
2023/04/17 09:40:36;;;;;;;16.30;10.10;;;13.80;99.90;;;;;;5033673;28;20486;-52
2023/04/17 09:43:04;;;;;;;14.47;9.80;;;13.50;99.90;;;;;;5039348;28;20499;-52
2023/04/17 09:45:34;;;;;;;24.57;10.30;;;13.10;99.90;;;;;;5035977;28;20823;-52
2023/04/17 09:48:04;;;;;;;24.73;11.37;;;13.20;99.90;;;;;;5049264;28;20468;-53
2023/04/17 09:50:32;;;;;;;16.87;10.40;;;13.40;99.90;;;;;;5048978;28;20473;-53
2023/04/17 09:52:59;;;;;;;15.77;11.03;;;13.00;99.90;;;;;;5044343;28;20521;-52
2023/04/17 09:55:28;;;;;;;20.00;10.90;;;13.10;99.90;;;;;;5047353;28;21007;-53
2023/04/17 09:57:58;;;;;;;15.43;10.27;;;12.90;99.90;;;;;;5048049;28;20465;-52
2023/04/17 10:00:26;;;;;;;16.93;10.00;;;13.80;99.90;;;;;;5047108;28;20497;-52
2023/04/17 10:02:54;;;;;;;11.63;10.03;;;15.10;99.90;;;;;;5036456;28;20470;-52
2023/04/17 10:05:23;;;;;;;14.70;11.80;;;14.80;99.90;;;;;;5046712;28;20442;-53
2023/04/17 10:07:49;;;;;;;27.70;10.30;;;15.60;99.90;;;;;;5048023;28;20493;-52
2023/04/17 10:10:22;;;;;;;18.60;11.13;;;15.50;99.90;;;;;;5045549;28;20472;-52
2023/04/17 10:12:50;;;;;;;18.37;11.43;;;15.00;99.90;;;;;;5052036;28;20510;-51
2023/04/17 10:15:19;;;;;;;14.90;10.37;;;14.30;99.90;;;;;;5043903;28;20513;-53
2023/04/17 10:17:47;;;;;;;13.87;10.63;;;14.70;99.90;;;;;;5041000;28;20487;-52
2023/04/17 10:20:34;;;;;;;15.40;9.80;;;15.20;99.90;;;;;;5041183;28;20455;-51
2023/04/17 10:23:28;;;;;;;18.77;12.20;;;14.00;99.90;;;;;;5036324;28;20461;-53
2023/04/17 10:26:37;;;;;;;18.30;10.67;;;14.90;99.90;;;;;;5044224;28;20465;-52
2023/04/17 10:29:04;;;;;;;13.47;10.80;;;14.90;99.90;;;;;;5041852;28;20823;-52
2023/04/17 10:32:04;;;;;;;16.57;11.07;;;15.00;99.90;;;;;;5041921;28;20572;-52
2023/04/17 10:34:36;;;;;;;19.07;12.00;;;15.60;99.90;;;;;;5034902;28;20458;-53
2023/04/17 10:37:03;;;;;;;15.27;11.73;;;14.30;99.90;;;;;;5037301;28;20609;-53
2023/04/17 10:39:50;;;;;;;26.10;12.00;;;13.70;99.90;;;;;;5041722;28;21039;-53
2023/04/17 10:42:18;;;;;;;16.40;11.47;;;13.50;99.90;;;;;;5046002;28;20466;-53
2023/04/17 10:44:46;;;;;;;12.43;11.20;;;13.10;99.90;;;;;;5044185;28;20459;-53
2023/04/17 10:47:13;;;;;;;14.57;11.87;;;13.00;99.90;;;;;;5047891;28;20524;-52
2023/04/17 10:49:52;;;;;;;19.47;11.63;;;12.60;99.90;;;;;;5050157;28;20473;-53
2023/04/17 10:52:40;;;;;;;19.30;11.10;;;12.80;99.90;;;;;;5046415;28;20517;-53
2023/04/17 10:55:09;;;;;;;16.23;11.07;;;13.40;99.90;;;;;;5036424;28;20465;-52
2023/04/17 10:57:53;;;;;;;19.60;10.70;;;13.40;99.90;;;;;;5046568;28;20525;-52
2023/04/17 11:00:21;;;;;;;13.27;10.70;;;13.00;99.90;;;;;;5036898;28;20489;-53
2023/04/17 11:02:49;;;;;;;17.20;10.60;;;13.30;99.90;;;;;;5041591;28;20494;-52
2023/04/17 11:05:17;;;;;;;16.80;12.60;;;13.50;99.90;;;;;;5050825;28;20450;-51
2023/04/17 11:07:49;;;;;;;15.77;11.67;;;13.60;99.90;;;;;;5041110;28;20494;-52
2023/04/17 11:10:16;;;;;;;16.87;11.33;;;13.90;99.90;;;;;;5043577;28;21054;-52
2023/04/17 11:12:45;;;;;;;15.03;11.57;;;13.60;99.90;;;;;;5041981;28;20486;-52
2023/04/17 11:15:12;;;;;;;13.23;11.20;;;13.60;99.90;;;;;;5043928;28;20466;-52
2023/04/17 11:17:40;;;;;;;15.00;10.57;;;13.60;99.90;;;;;;5049737;28;20442;-52
2023/04/17 11:20:07;;;;;;;15.23;10.40;;;13.60;99.90;;;;;;5052778;28;20446;-52
2023/04/17 11:22:36;;;;;;;23.70;11.03;;;13.70;99.90;;;;;;5045183;28;20524;-52
2023/04/17 11:25:03;;;;;;;16.30;9.57;;;13.80;99.90;;;;;;5031847;28;20561;-53
2023/04/17 11:27:30;;;;;;;15.40;11.10;;;13.70;99.90;;;;;;5020850;28;20485;-53
2023/04/17 11:29:56;;;;;;;15.83;10.70;;;13.40;99.90;;;;;;5028787;28;20554;-53
2023/04/17 11:32:23;;;;;;;13.30;10.37;;;13.40;99.90;;;;;;5034033;28;21315;-53
2023/04/17 11:34:50;;;;;;;16.97;10.93;;;13.40;99.90;;;;;;5036328;28;20992;-52
2023/04/17 11:37:17;;;;;;;16.73;10.70;;;12.90;99.90;;;;;;5038884;28;20465;-53
2023/04/17 11:39:46;;;;;;;16.53;10.93;;;13.10;99.90;;;;;;5040698;28;20463;-52
2023/04/17 11:42:12;;;;;;;15.37;11.10;;;13.10;99.90;;;;;;5033950;28;20590;-53
2023/04/17 11:44:43;;;;;;;16.60;11.60;;;13.10;99.90;;;;;;5048123;28;20501;-52
2023/04/17 11:47:09;;;;;;;17.13;11.00;;;13.50;99.90;;;;;;5044485;28;20466;-52
2023/04/17 11:49:38;;;;;;;14.80;11.20;;;13.30;99.90;;;;;;5048391;28;20513;-53
2023/04/17 11:52:05;;;;;;;16.40;12.27;;;13.40;99.90;;;;;;5042879;28;20532;-52
2023/04/17 11:54:35;;;;;;;16.00;11.50;;;13.20;99.90;;;;;;5051876;28;20503;-52
2023/04/17 11:57:05;;;;;;;11.50;10.30;;;13.00;99.90;;;;;;5045770;28;20465;-53
2023/04/17 11:59:33;;;;;;;12.73;10.27;;;12.70;99.90;;;;;;5043418;28;20487;-53
2023/04/17 12:02:00;;;;;;;15.43;10.87;;;12.70;99.90;;;;;;5050018;28;20517;-59
2023/04/17 12:04:28;;;;;;;16.80;10.63;;;13.10;99.90;;;;;;5051312;28;20451;-52
2023/04/17 12:06:55;;;;;;;12.27;10.50;;;13.10;99.90;;;;;;5039816;28;20549;-52
2023/04/17 12:09:23;;;;;;;13.43;10.80;;;12.70;99.90;;;;;;5051802;28;20481;-51
2023/04/17 12:11:52;;;;;;;14.00;11.33;;;12.10;99.90;;;;;;5046246;28;20489;-53
2023/04/17 12:14:20;;;;;;;12.47;10.80;;;12.00;99.90;;;;;;5033913;28;20508;-52
2023/04/17 12:16:48;;;;;;;12.17;10.23;;;11.90;99.90;;;;;;5036188;28;21052;-52
2023/04/17 12:19:15;;;;;;;16.60;11.77;;;11.60;99.90;;;;;;5045741;28;20544;-53
2023/04/17 12:21:43;;;;;;;16.00;11.90;;;11.30;99.90;;;;;;5043044;28;20509;-52
2023/04/17 12:24:10;;;;;;;13.83;12.23;;;11.30;99.90;;;;;;5040644;28;20843;-53
2023/04/17 12:26:36;;;;;;;13.33;11.93;;;11.10;99.90;;;;;;5042309;28;20453;-53
2023/04/17 12:29:03;;;;;;;17.67;12.63;;;10.90;99.90;;;;;;5050836;28;20494;-53
2023/04/17 12:31:31;;;;;;;16.10;13.80;;;10.70;99.90;;;;;;5038611;28;20499;-52
2023/04/17 12:33:57;;;;;;;15.40;13.00;;;10.50;99.90;;;;;;5042278;28;20918;-52
2023/04/17 12:36:24;;;;;;;15.80;12.30;;;10.40;99.90;;;;;;5034827;28;20505;-53
2023/04/17 12:38:50;;;;;;;18.53;13.03;;;10.50;97.70;;;;;;5044527;28;20502;-52